^^
Saratoga-Weather Station Historical Data
Daily Summary for October 12, 2020 Units:  Both    English   Metric
Daily Weekly Monthly Yearly Custom
  High: Low: Average:
Temperature: 52.5 °F /  11.4 °C 43.5 °F /  6.4 °C 48.4 °F /  9.1 °C
Dew Point: 47.8 °F /  8.8 °C 41.2 °F /  5.1 °C 45.1 °F /  7.3 °C
Humidity: 93% 80% 89%
Wind Speed: 8.1mph /  13km/h - 1.9mph /  3.1km/h
Wind Gust: 11mph /  17.7km/h - -
Wind- - West
Pressure: 30.2 in /  1021.7 hPa 30 in /  1016.9 hPa -
Precipitation: 0.01 in /  0.2 mm    
Historical Graphs
 
 
Tabular Data for October 12, 2020
Time Temperature Dew Point Pressure Wind Wind Speed Wind Gust Humidity Rainfall Rate (Hourly) solar
00:01 48.6 °F /  9.2 °C 44.6 °F /  7 °C 30.2in /  1021.0hPa West 2mph /  3.2km/h 6mph /  9.7km/h 86% 0in /  0.0mm 0 W/m2
00:06 48.6 °F /  9.2 °C 44.6 °F /  7 °C 30.2in /  1021.0hPa WSW 2.9mph /  4.7km/h 5mph /  8km/h 86% 0in /  0.0mm 0 W/m2
00:11 48.6 °F /  9.2 °C 44.6 °F /  7 °C 30.2in /  1021.0hPa West 2.9mph /  4.7km/h 4mph /  6.4km/h 86% 0in /  0.0mm 0 W/m2
00:16 48.4 °F /  9.1 °C 44.4 °F /  6.9 °C 30.2in /  1021.0hPa West 2mph /  3.2km/h 5mph /  8km/h 86% 0in /  0.0mm 0 W/m2
00:21 48.4 °F /  9.1 °C 44.4 °F /  6.9 °C 30.2in /  1021.0hPa West 2.9mph /  4.7km/h 5mph /  8km/h 86% 0in /  0.0mm 0 W/m2
00:26 48.2 °F /  9 °C 44.2 °F /  6.8 °C 30.2in /  1021.0hPa West 2.9mph /  4.7km/h 4mph /  6.4km/h 86% 0in /  0.0mm 0 W/m2
00:31 48 °F /  8.9 °C 44.1 °F /  6.7 °C 30.2in /  1021.0hPa West 2.9mph /  4.7km/h 4mph /  6.4km/h 86% 0in /  0.0mm 0 W/m2
00:36 47.8 °F /  8.8 °C 44.2 °F /  6.8 °C 30.2in /  1021.3hPa WSW 4mph /  6.4km/h 4mph /  6.4km/h 87% 0in /  0.0mm 0 W/m2
00:41 47.7 °F /  8.7 °C 44.1 °F /  6.7 °C 30.2in /  1021.3hPa West 2.9mph /  4.7km/h 5mph /  8km/h 87% 0in /  0.0mm 0 W/m2
00:46 47.7 °F /  8.7 °C 44.1 °F /  6.7 °C 30.2in /  1021.3hPa West 2mph /  3.2km/h 4mph /  6.4km/h 87% 0in /  0.0mm 0 W/m2
00:51 47.7 °F /  8.7 °C 44.2 °F /  6.8 °C 30.2in /  1021.3hPa West 2.9mph /  4.7km/h 5mph /  8km/h 88% 0in /  0.0mm 0 W/m2
00:56 47.5 °F /  8.6 °C 44.1 °F /  6.7 °C 30.2in /  1021.3hPa West 6mph /  9.7km/h 7mph /  11.3km/h 88% 0in /  0.0mm 0 W/m2
01:01 47.5 °F /  8.6 °C 44.1 °F /  6.7 °C 30.2in /  1021.3hPa West 2mph /  3.2km/h 6mph /  9.7km/h 88% 0in /  0.0mm 0 W/m2
01:06 47.1 °F /  8.4 °C 43.7 °F /  6.5 °C 30.2in /  1021.3hPa West 6mph /  9.7km/h 9mph /  14.5km/h 88% 0in /  0.0mm 0 W/m2
01:11 47.1 °F /  8.4 °C 43.7 °F /  6.5 °C 30.2in /  1021.3hPa WSW 2.9mph /  4.7km/h 6mph /  9.7km/h 88% 0in /  0.0mm 0 W/m2
01:16 46.9 °F /  8.3 °C 43.5 °F /  6.4 °C 30.2in /  1021.3hPa West 2mph /  3.2km/h 7mph /  11.3km/h 88% 0in /  0.0mm 0 W/m2
01:21 46.9 °F /  8.3 °C 43.5 °F /  6.4 °C 30.2in /  1021.3hPa WSW 2mph /  3.2km/h 4mph /  6.4km/h 88% 0in /  0.0mm 0 W/m2
01:26 46.8 °F /  8.2 °C 43.3 °F /  6.3 °C 30.2in /  1021.3hPa West 4mph /  6.4km/h 6mph /  9.7km/h 88% 0in /  0.0mm 0 W/m2
01:32 46.6 °F /  8.1 °C 43.2 °F /  6.2 °C 30.2in /  1021.3hPa West 0.9mph /  1.4km/h 4mph /  6.4km/h 88% 0in /  0.0mm 0 W/m2
01:37 46.4 °F /  8 °C 43.3 °F /  6.3 °C 30.2in /  1021.3hPa West 2mph /  3.2km/h 3mph /  4.8km/h 89% 0in /  0.0mm 0 W/m2
01:42 46.2 °F /  7.9 °C 43.2 °F /  6.2 °C 30.2in /  1021.3hPa West 2mph /  3.2km/h 4mph /  6.4km/h 89% 0in /  0.0mm 0 W/m2
01:47 46 °F /  7.8 °C 43 °F /  6.1 °C 30.2in /  1021.3hPa West 2mph /  3.2km/h 2mph /  3.2km/h 89% 0in /  0.0mm 0 W/m2
01:52 45.9 °F /  7.7 °C 42.8 °F /  6 °C 30.2in /  1021.3hPa West 2mph /  3.2km/h 3mph /  4.8km/h 89% 0in /  0.0mm 0 W/m2
01:57 45.5 °F /  7.5 °C 42.8 °F /  6 °C 30.2in /  1021.3hPa WSW 2mph /  3.2km/h 3mph /  4.8km/h 90% 0in /  0.0mm 0 W/m2
02:02 45.3 °F /  7.4 °C 42.6 °F /  5.9 °C 30.2in /  1021.3hPa Calm   2mph /  3.2km/h 90% 0in /  0.0mm 0 W/m2
02:07 45.1 °F /  7.3 °C 42.4 °F /  5.8 °C 30.2in /  1021.3hPa West 0.9mph /  1.4km/h 2mph /  3.2km/h 90% 0in /  0.0mm 0 W/m2
02:12 45.1 °F /  7.3 °C 42.4 °F /  5.8 °C 30.2in /  1021.3hPa West 0.9mph /  1.4km/h 3mph /  4.8km/h 90% 0in /  0.0mm 0 W/m2
02:17 45.1 °F /  7.3 °C 42.6 °F /  5.9 °C 30.2in /  1021.3hPa West 2mph /  3.2km/h 4mph /  6.4km/h 91% 0in /  0.0mm 0 W/m2
02:22 45.1 °F /  7.3 °C 42.6 °F /  5.9 °C 30.2in /  1021.3hPa West 0.9mph /  1.4km/h 3mph /  4.8km/h 91% 0in /  0.0mm 0 W/m2
02:27 45.1 °F /  7.3 °C 42.6 °F /  5.9 °C 30.2in /  1021.3hPa West 0.9mph /  1.4km/h 3mph /  4.8km/h 91% 0in /  0.0mm 0 W/m2
02:32 45.1 °F /  7.3 °C 42.4 °F /  5.8 °C 30.2in /  1021.3hPa West 0.9mph /  1.4km/h 3mph /  4.8km/h 90% 0in /  0.0mm 0 W/m2
02:37 45.1 °F /  7.3 °C 42.4 °F /  5.8 °C 30.2in /  1021.3hPa West 0.9mph /  1.4km/h 2mph /  3.2km/h 90% 0in /  0.0mm 0 W/m2
02:42 45 °F /  7.2 °C 42.3 °F /  5.7 °C 30.2in /  1021.3hPa WNW 0.9mph /  1.4km/h 4mph /  6.4km/h 90% 0in /  0.0mm 0 W/m2
02:47 44.6 °F /  7 °C 41.9 °F /  5.5 °C 30.2in /  1021.3hPa West 0.9mph /  1.4km/h 2mph /  3.2km/h 90% 0in /  0.0mm 0 W/m2
02:52 44.4 °F /  6.9 °C 41.7 °F /  5.4 °C 30.2in /  1021.3hPa West 0.9mph /  1.4km/h 2mph /  3.2km/h 90% 0in /  0.0mm 0 W/m2
02:57 44.1 °F /  6.7 °C 41.5 °F /  5.3 °C 30.2in /  1021.3hPa West 0.9mph /  1.4km/h 2mph /  3.2km/h 91% 0in /  0.0mm 0 W/m2
03:02 43.9 °F /  6.6 °C 41.4 °F /  5.2 °C 30.2in /  1021.3hPa West 0.9mph /  1.4km/h 3mph /  4.8km/h 91% 0in /  0.0mm 0 W/m2
03:07 43.7 °F /  6.5 °C 41.2 °F /  5.1 °C 30.2in /  1021.3hPa West 2mph /  3.2km/h 2mph /  3.2km/h 91% 0in /  0.0mm 0 W/m2
03:12 43.5 °F /  6.4 °C 41.4 °F /  5.2 °C 30.2in /  1021.3hPa West 2mph /  3.2km/h 3mph /  4.8km/h 92% 0in /  0.0mm 0 W/m2
03:17 43.7 °F /  6.5 °C 41.5 °F /  5.3 °C 30.2in /  1021.3hPa West 2.9mph /  4.7km/h 6mph /  9.7km/h 92% 0in /  0.0mm 0 W/m2
03:22 44.1 °F /  6.7 °C 41.9 °F /  5.5 °C 30.2in /  1021.3hPa West 2.9mph /  4.7km/h 4mph /  6.4km/h 92% 0in /  0.0mm 0 W/m2
03:27 44.2 °F /  6.8 °C 42.1 °F /  5.6 °C 30.2in /  1021.3hPa West 2.9mph /  4.7km/h 4mph /  6.4km/h 92% 0in /  0.0mm 0 W/m2
03:32 44.4 °F /  6.9 °C 42.3 °F /  5.7 °C 30.2in /  1021.3hPa West 2mph /  3.2km/h 7mph /  11.3km/h 92% 0in /  0.0mm 0 W/m2
03:37 44.6 °F /  7 °C 42.1 °F /  5.6 °C 30.2in /  1021.3hPa West 2.9mph /  4.7km/h 7mph /  11.3km/h 91% 0in /  0.0mm 0 W/m2
03:42 44.6 °F /  7 °C 42.1 °F /  5.6 °C 30.2in /  1021.3hPa West 2.9mph /  4.7km/h 4mph /  6.4km/h 91% 0in /  0.0mm 0 W/m2
03:47 44.6 °F /  7 °C 42.1 °F /  5.6 °C 30.2in /  1021.3hPa WNW 2.9mph /  4.7km/h 7mph /  11.3km/h 91% 0in /  0.0mm 0 W/m2
03:52 44.8 °F /  7.1 °C 42.3 °F /  5.7 °C 30.2in /  1021.3hPa West 2.9mph /  4.7km/h 6mph /  9.7km/h 91% 0in /  0.0mm 0 W/m2
03:57 44.8 °F /  7.1 °C 42.1 °F /  5.6 °C 30.2in /  1021.3hPa West 4mph /  6.4km/h 6mph /  9.7km/h 90% 0in /  0.0mm 0 W/m2
04:02 45 °F /  7.2 °C 42.3 °F /  5.7 °C 30.2in /  1021.0hPa WNW 2mph /  3.2km/h 4mph /  6.4km/h 90% 0in /  0.0mm 0 W/m2
04:07 45 °F /  7.2 °C 42.3 °F /  5.7 °C 30.2in /  1021.0hPa West 2.9mph /  4.7km/h 4mph /  6.4km/h 90% 0in /  0.0mm 0 W/m2
04:12 45.1 °F /  7.3 °C 42.4 °F /  5.8 °C 30.2in /  1021.0hPa West 2.9mph /  4.7km/h 4mph /  6.4km/h 90% 0in /  0.0mm 0 W/m2
04:17 45.3 °F /  7.4 °C 42.6 °F /  5.9 °C 30.2in /  1021.0hPa West 2mph /  3.2km/h 3mph /  4.8km/h 90% 0in /  0.0mm 0 W/m2
04:22 45.9 °F /  7.7 °C 43.2 °F /  6.2 °C 30.2in /  1021.0hPa WSW 4mph /  6.4km/h 6mph /  9.7km/h 90% 0in /  0.0mm 0 W/m2
04:27 46 °F /  7.8 °C 43.3 °F /  6.3 °C 30.2in /  1021.0hPa WNW 0.9mph /  1.4km/h 3mph /  4.8km/h 90% 0in /  0.0mm 0 W/m2
04:32 46 °F /  7.8 °C 43.3 °F /  6.3 °C 30.2in /  1021.0hPa NW 0.9mph /  1.4km/h 2mph /  3.2km/h 90% 0in /  0.0mm 0 W/m2
04:37 46.2 °F /  7.9 °C 43.2 °F /  6.2 °C 30.2in /  1021.0hPa Calm   2mph /  3.2km/h 89% 0in /  0.0mm 0 W/m2
04:42 46.2 °F /  7.9 °C 43.2 °F /  6.2 °C 30.2in /  1021.0hPa NW 0.9mph /  1.4km/h 1mph /  1.6km/h 89% 0in /  0.0mm 0 W/m2
04:47 46 °F /  7.8 °C 43 °F /  6.1 °C 30.2in /  1021.0hPa NW 0.9mph /  1.4km/h 2mph /  3.2km/h 89% 0in /  0.0mm 0 W/m2
04:52 46 °F /  7.8 °C 43 °F /  6.1 °C 30.2in /  1021.0hPa Calm     89% 0in /  0.0mm 0 W/m2
04:57 46 °F /  7.8 °C 43 °F /  6.1 °C 30.2in /  1021.0hPa NW 0.9mph /  1.4km/h 3mph /  4.8km/h 89% 0in /  0.0mm 0 W/m2
05:02 46 °F /  7.8 °C 43.3 °F /  6.3 °C 30.2in /  1021.0hPa Calm   1mph /  1.6km/h 90% 0in /  0.0mm 0 W/m2
05:07 46 °F /  7.8 °C 43.3 °F /  6.3 °C 30.2in /  1021.0hPa Calm   3mph /  4.8km/h 90% 0in /  0.0mm 0 W/m2
05:12 46 °F /  7.8 °C 43.3 °F /  6.3 °C 30.2in /  1021.0hPa West 0.9mph /  1.4km/h 3mph /  4.8km/h 90% 0in /  0.0mm 0 W/m2
05:17 46 °F /  7.8 °C 43.3 °F /  6.3 °C 30.2in /  1021.0hPa West 2mph /  3.2km/h 4mph /  6.4km/h 90% 0in /  0.0mm 0 W/m2
05:22 46 °F /  7.8 °C 43.3 °F /  6.3 °C 30.2in /  1021.0hPa West 0.9mph /  1.4km/h 3mph /  4.8km/h 90% 0in /  0.0mm 0 W/m2
05:27 46.2 °F /  7.9 °C 43.5 °F /  6.4 °C 30.2in /  1021.0hPa NW 2mph /  3.2km/h 4mph /  6.4km/h 90% 0in /  0.0mm 0 W/m2
05:32 46.2 °F /  7.9 °C 43.5 °F /  6.4 °C 30.2in /  1021.0hPa WSW 2mph /  3.2km/h 3mph /  4.8km/h 90% 0in /  0.0mm 0 W/m2
05:37 46.4 °F /  8 °C 43.7 °F /  6.5 °C 30.2in /  1021.0hPa WNW 4mph /  6.4km/h 5mph /  8km/h 90% 0in /  0.0mm 0 W/m2
05:42 46.6 °F /  8.1 °C 43.9 °F /  6.6 °C 30.2in /  1021.0hPa West 0.9mph /  1.4km/h 2mph /  3.2km/h 90% 0in /  0.0mm 0 W/m2
05:47 46.6 °F /  8.1 °C 43.9 °F /  6.6 °C 30.2in /  1021.0hPa Calm   2mph /  3.2km/h 90% 0in /  0.0mm 0 W/m2
05:52 46.6 °F /  8.1 °C 43.9 °F /  6.6 °C 30.2in /  1021.0hPa NW 0.9mph /  1.4km/h 2mph /  3.2km/h 90% 0in /  0.0mm 0 W/m2
05:57 46.4 °F /  8 °C 43.7 °F /  6.5 °C 30.2in /  1021.0hPa WNW 0.9mph /  1.4km/h 4mph /  6.4km/h 90% 0in /  0.0mm 0 W/m2
06:02 46.4 °F /  8 °C 43.7 °F /  6.5 °C 30.2in /  1021.0hPa West 0.9mph /  1.4km/h 4mph /  6.4km/h 90% 0in /  0.0mm 0 W/m2
06:07 46.4 °F /  8 °C 43.7 °F /  6.5 °C 30.2in /  1021.0hPa Calm   1mph /  1.6km/h 90% 0in /  0.0mm 0 W/m2
06:12 46.4 °F /  8 °C 43.7 °F /  6.5 °C 30.2in /  1021.0hPa Calm   1mph /  1.6km/h 90% 0in /  0.0mm 0 W/m2
06:17 46.4 °F /  8 °C 43.7 °F /  6.5 °C 30.2in /  1021.0hPa WNW 0.9mph /  1.4km/h 2mph /  3.2km/h 90% 0in /  0.0mm 0 W/m2
06:22 46.2 °F /  7.9 °C 43.5 °F /  6.4 °C 30.2in /  1021.0hPa WNW 0.9mph /  1.4km/h 2mph /  3.2km/h 90% 0in /  0.0mm 0 W/m2
06:27 46.2 °F /  7.9 °C 43.5 °F /  6.4 °C 30.2in /  1021.0hPa WNW 0.9mph /  1.4km/h 2mph /  3.2km/h 90% 0in /  0.0mm 0 W/m2
06:32 46.2 °F /  7.9 °C 43.7 °F /  6.5 °C 30.2in /  1021.0hPa WNW 2mph /  3.2km/h 3mph /  4.8km/h 91% 0in /  0.0mm 0 W/m2
06:37 46.2 °F /  7.9 °C 43.7 °F /  6.5 °C 30.2in /  1021.0hPa West 2mph /  3.2km/h 3mph /  4.8km/h 91% 0in /  0.0mm 0 W/m2
06:42 46 °F /  7.8 °C 43.5 °F /  6.4 °C 30.2in /  1021.0hPa West 0.9mph /  1.4km/h 3mph /  4.8km/h 91% 0in /  0.0mm 0 W/m2
06:47 46 °F /  7.8 °C 43.5 °F /  6.4 °C 30.2in /  1021.0hPa West 2mph /  3.2km/h 3mph /  4.8km/h 91% 0in /  0.0mm 0 W/m2
06:52 46 °F /  7.8 °C 43.5 °F /  6.4 °C 30.2in /  1021.0hPa WSW 0.9mph /  1.4km/h 2mph /  3.2km/h 91% 0in /  0.0mm 0 W/m2
06:57 46 °F /  7.8 °C 43.5 °F /  6.4 °C 30.2in /  1021.0hPa West 2mph /  3.2km/h 4mph /  6.4km/h 91% 0in /  0.0mm 0 W/m2
07:02 46 °F /  7.8 °C 43.5 °F /  6.4 °C 30.2in /  1021.0hPa WSW 0.9mph /  1.4km/h 2mph /  3.2km/h 91% 0in /  0.0mm 0 W/m2
07:07 46 °F /  7.8 °C 43.5 °F /  6.4 °C 30.2in /  1021.0hPa WSW 2.9mph /  4.7km/h 3mph /  4.8km/h 91% 0in /  0.0mm 0 W/m2
07:12 46 °F /  7.8 °C 43.5 °F /  6.4 °C 30.2in /  1021.0hPa WSW 0.9mph /  1.4km/h 2mph /  3.2km/h 91% 0in /  0.0mm 0 W/m2
07:17 46 °F /  7.8 °C 43.5 °F /  6.4 °C 30.2in /  1021.0hPa WNW 2mph /  3.2km/h 3mph /  4.8km/h 91% 0in /  0.0mm 0 W/m2
07:22 46 °F /  7.8 °C 43.5 °F /  6.4 °C 30.2in /  1021.0hPa Calm   1mph /  1.6km/h 91% 0in /  0.0mm 0 W/m2
07:27 46 °F /  7.8 °C 43.5 °F /  6.4 °C 30.2in /  1021.0hPa West 0.9mph /  1.4km/h 2mph /  3.2km/h 91% 0in /  0.0mm 0 W/m2
07:32 46.2 °F /  7.9 °C 44.1 °F /  6.7 °C 30.2in /  1021.0hPa Calm   2mph /  3.2km/h 92% 0in /  0.0mm 0 W/m2
07:37 46.2 °F /  7.9 °C 43.7 °F /  6.5 °C 30.2in /  1021.0hPa Calm   1mph /  1.6km/h 91% 0in /  0.0mm 0 W/m2
07:42 46.2 °F /  7.9 °C 43.7 °F /  6.5 °C 30.2in /  1021.0hPa WNW 2mph /  3.2km/h 2mph /  3.2km/h 91% 0in /  0.0mm 0 W/m2
07:47 46.2 °F /  7.9 °C 43.7 °F /  6.5 °C 30.2in /  1021.0hPa WNW 0.9mph /  1.4km/h 2mph /  3.2km/h 91% 0in /  0.0mm 0 W/m2
07:52 46.2 °F /  7.9 °C 43.7 °F /  6.5 °C 30.2in /  1021.0hPa Calm   2mph /  3.2km/h 91% 0in /  0.0mm 0 W/m2
07:57 46.2 °F /  7.9 °C 43.7 °F /  6.5 °C 30.2in /  1021.0hPa ENE 0.9mph /  1.4km/h 2mph /  3.2km/h 91% 0in /  0.0mm 0 W/m2
08:02 46.2 °F /  7.9 °C 43.7 °F /  6.5 °C 30.2in /  1021.3hPa Calm   3mph /  4.8km/h 91% 0in /  0.0mm 5 W/m2
08:07 46.2 °F /  7.9 °C 43.7 °F /  6.5 °C 30.2in /  1021.3hPa NNW 2mph /  3.2km/h 2mph /  3.2km/h 91% 0in /  0.0mm 7 W/m2
08:12 46.2 °F /  7.9 °C 43.7 °F /  6.5 °C 30.2in /  1021.3hPa NW 0.9mph /  1.4km/h 3mph /  4.8km/h 91% 0in /  0.0mm 11 W/m2
08:17 46.2 °F /  7.9 °C 43.7 °F /  6.5 °C 30.2in /  1021.3hPa Calm     91% 0in /  0.0mm 12 W/m2
08:22 46.4 °F /  8 °C 44.2 °F /  6.8 °C 30.2in /  1021.3hPa Calm   3mph /  4.8km/h 92% 0in /  0.0mm 16 W/m2
08:27 46.4 °F /  8 °C 44.2 °F /  6.8 °C 30.2in /  1021.3hPa Calm     92% 0in /  0.0mm 19 W/m2
08:32 46.4 °F /  8 °C 44.2 °F /  6.8 °C 30.2in /  1021.3hPa NW 2mph /  3.2km/h 2mph /  3.2km/h 92% 0in /  0.0mm 23 W/m2
08:37 46.4 °F /  8 °C 43.9 °F /  6.6 °C 30.2in /  1021.3hPa Calm   2mph /  3.2km/h 91% 0in /  0.0mm 26 W/m2
08:42 46.4 °F /  8 °C 43.9 °F /  6.6 °C 30.2in /  1021.3hPa West 4mph /  6.4km/h 4mph /  6.4km/h 91% 0in /  0.0mm 26 W/m2
08:47 46.2 °F /  7.9 °C 43.7 °F /  6.5 °C 30.2in /  1021.3hPa SW 2mph /  3.2km/h 4mph /  6.4km/h 91% 0in /  0.0mm 30 W/m2
08:52 46.2 °F /  7.9 °C 43.7 °F /  6.5 °C 30.2in /  1021.3hPa WNW 2mph /  3.2km/h 2mph /  3.2km/h 91% 0in /  0.0mm 37 W/m2
08:57 46 °F /  7.8 °C 43.9 °F /  6.6 °C 30.2in /  1021.3hPa West 0.9mph /  1.4km/h 4mph /  6.4km/h 92% 0in /  0.0mm 32 W/m2
09:02 46 °F /  7.8 °C 43.9 °F /  6.6 °C 30.2in /  1021.3hPa Calm   3mph /  4.8km/h 92% 0in /  0.0mm 33 W/m2
09:07 46.2 °F /  7.9 °C 44.1 °F /  6.7 °C 30.2in /  1021.3hPa Calm   4mph /  6.4km/h 92% 0in /  0.0mm 35 W/m2
09:12 46.2 °F /  7.9 °C 44.1 °F /  6.7 °C 30.2in /  1021.3hPa WNW 0.9mph /  1.4km/h 5mph /  8km/h 92% 0in /  0.0mm 39 W/m2
09:17 46.2 °F /  7.9 °C 44.1 °F /  6.7 °C 30.2in /  1021.3hPa WSW 2mph /  3.2km/h 3mph /  4.8km/h 92% 0in /  0.0mm 39 W/m2
09:22 46.6 °F /  8.1 °C 44.4 °F /  6.9 °C 30.2in /  1021.7hPa West 0.9mph /  1.4km/h 3mph /  4.8km/h 92% 0in /  0.0mm 47 W/m2
09:27 46.6 °F /  8.1 °C 44.4 °F /  6.9 °C 30.2in /  1021.7hPa NW 2mph /  3.2km/h 2mph /  3.2km/h 92% 0in /  0.0mm 54 W/m2
09:32 46.8 °F /  8.2 °C 44.6 °F /  7 °C 30.2in /  1021.7hPa Calm   4mph /  6.4km/h 92% 0in /  0.0mm 49 W/m2
09:37 46.9 °F /  8.3 °C 44.8 °F /  7.1 °C 30.2in /  1021.7hPa WSW 0.9mph /  1.4km/h 4mph /  6.4km/h 92% 0in /  0.0mm 69 W/m2
09:42 46.9 °F /  8.3 °C 44.8 °F /  7.1 °C 30.2in /  1021.3hPa West 2.9mph /  4.7km/h 3mph /  4.8km/h 92% 0in /  0.0mm 81 W/m2
09:47 47.1 °F /  8.4 °C 45 °F /  7.2 °C 30.2in /  1021.3hPa WSW 4mph /  6.4km/h 4mph /  6.4km/h 92% 0in /  0.0mm 104 W/m2
09:52 47.3 °F /  8.5 °C 44.8 °F /  7.1 °C 30.2in /  1021.3hPa WNW 2mph /  3.2km/h 4mph /  6.4km/h 91% 0in /  0.0mm 113 W/m2
09:57 47.5 °F /  8.6 °C 45 °F /  7.2 °C 30.2in /  1021.3hPa WNW 4mph /  6.4km/h 4mph /  6.4km/h 91% 0in /  0.0mm 120 W/m2
10:02 47.7 °F /  8.7 °C 45.1 °F /  7.3 °C 30.2in /  1021.3hPa WNW 0.9mph /  1.4km/h 3mph /  4.8km/h 91% 0in /  0.0mm 127 W/m2
10:07 47.8 °F /  8.8 °C 45.3 °F /  7.4 °C 30.2in /  1021.3hPa WNW 2.9mph /  4.7km/h 6mph /  9.7km/h 91% 0in /  0.0mm 146 W/m2
10:12 48 °F /  8.9 °C 45.1 °F /  7.3 °C 30.2in /  1021.3hPa WNW 2mph /  3.2km/h 4mph /  6.4km/h 90% 0in /  0.0mm 158 W/m2
10:17 48.4 °F /  9.1 °C 45.5 °F /  7.5 °C 30.2in /  1021.3hPa NW 2.9mph /  4.7km/h 6mph /  9.7km/h 90% 0in /  0.0mm 151 W/m2
10:22 48.4 °F /  9.1 °C 45.5 °F /  7.5 °C 30.2in /  1021.7hPa NW 2.9mph /  4.7km/h 6mph /  9.7km/h 90% 0in /  0.0mm 174 W/m2
10:27 48.6 °F /  9.2 °C 45.5 °F /  7.5 °C 30.2in /  1021.7hPa West 2mph /  3.2km/h 4mph /  6.4km/h 89% 0in /  0.0mm 204 W/m2
10:32 48.7 °F /  9.3 °C 45.9 °F /  7.7 °C 30.2in /  1021.3hPa NW 0.9mph /  1.4km/h 2mph /  3.2km/h 90% 0in /  0.0mm 220 W/m2
10:38 48.9 °F /  9.4 °C 45.9 °F /  7.7 °C 30.2in /  1021.3hPa NW 2mph /  3.2km/h 6mph /  9.7km/h 89% 0in /  0.0mm 207 W/m2
10:43 49.3 °F /  9.6 °C 46.2 °F /  7.9 °C 30.2in /  1021.3hPa WSW 2.9mph /  4.7km/h 4mph /  6.4km/h 89% 0in /  0.0mm 193 W/m2
10:48 49.3 °F /  9.6 °C 45.9 °F /  7.7 °C 30.2in /  1021.3hPa WNW 0.9mph /  1.4km/h 3mph /  4.8km/h 88% 0in /  0.0mm 181 W/m2
10:53 49.3 °F /  9.6 °C 45.9 °F /  7.7 °C 30.2in /  1021.3hPa Calm   4mph /  6.4km/h 88% 0in /  0.0mm 204 W/m2
10:58 49.5 °F /  9.7 °C 46 °F /  7.8 °C 30.2in /  1021.3hPa Calm   3mph /  4.8km/h 88% 0in /  0.0mm 195 W/m2
11:03 49.6 °F /  9.8 °C 46.2 °F /  7.9 °C 30.2in /  1021.3hPa WNW 2mph /  3.2km/h 5mph /  8km/h 88% 0in /  0.0mm 167 W/m2
11:08 49.8 °F /  9.9 °C 46.4 °F /  8 °C 30.2in /  1021.3hPa West 2mph /  3.2km/h 6mph /  9.7km/h 88% 0in /  0.0mm 155 W/m2
11:13 50 °F /  10 °C 46.2 °F /  7.9 °C 30.2in /  1021.0hPa WNW 0.9mph /  1.4km/h 7mph /  11.3km/h 87% 0in /  0.0mm 128 W/m2
11:18 50.2 °F /  10.1 °C 46.4 °F /  8 °C 30.2in /  1021.3hPa WNW 2.9mph /  4.7km/h 5mph /  8km/h 87% 0in /  0.0mm 183 W/m2
11:23 50.4 °F /  10.2 °C 46.4 °F /  8 °C 30.2in /  1021.3hPa West 2mph /  3.2km/h 8mph /  12.9km/h 86% 0in /  0.0mm 299 W/m2
11:28 50.5 °F /  10.3 °C 46.8 °F /  8.2 °C 30.2in /  1021.3hPa WNW 4.9mph /  7.9km/h 7mph /  11.3km/h 87% 0in /  0.0mm 294 W/m2
11:33 50.9 °F /  10.5 °C 46.9 °F /  8.3 °C 30.2in /  1021.0hPa NNW 4mph /  6.4km/h 11mph /  17.7km/h 86% 0in /  0.0mm 374 W/m2
11:38 51.1 °F /  10.6 °C 46.8 °F /  8.2 °C 30.2in /  1021.0hPa West 6mph /  9.7km/h 8mph /  12.9km/h 85% 0in /  0.0mm 336 W/m2
11:43 51.3 °F /  10.7 °C 46.9 °F /  8.3 °C 30.2in /  1021.0hPa WNW 2.9mph /  4.7km/h 5mph /  8km/h 85% 0in /  0.0mm 230 W/m2
11:48 51.3 °F /  10.7 °C 46.9 °F /  8.3 °C 30.2in /  1021.0hPa WNW 6.9mph /  11.1km/h 9mph /  14.5km/h 85% 0in /  0.0mm 299 W/m2
11:53 51.3 °F /  10.7 °C 46.6 °F /  8.1 °C 30.2in /  1021.0hPa WNW 4mph /  6.4km/h 10mph /  16.1km/h 84% 0in /  0.0mm 186 W/m2
11:58 51.1 °F /  10.6 °C 46.8 °F /  8.2 °C 30.2in /  1021.0hPa West 2.9mph /  4.7km/h 7mph /  11.3km/h 85% 0in /  0.0mm 153 W/m2
12:03 51.1 °F /  10.6 °C 46.8 °F /  8.2 °C 30.2in /  1021.0hPa WNW 2mph /  3.2km/h 10mph /  16.1km/h 85% 0in /  0.0mm 185 W/m2
12:08 51.3 °F /  10.7 °C 46.9 °F /  8.3 °C 30.2in /  1021.0hPa WSW 4mph /  6.4km/h 9mph /  14.5km/h 85% 0in /  0.0mm 265 W/m2
12:13 51.4 °F /  10.8 °C 46.8 °F /  8.2 °C 30.1in /  1020.7hPa WNW 4.9mph /  7.9km/h 10mph /  16.1km/h 84% 0in /  0.0mm 214 W/m2
12:18 51.6 °F /  10.9 °C 46.6 °F /  8.1 °C 30.1in /  1020.7hPa West 4mph /  6.4km/h 7mph /  11.3km/h 83% 0in /  0.0mm 323 W/m2
12:23 52 °F /  11.1 °C 46.4 °F /  8 °C 30.1in /  1020.7hPa SW 4mph /  6.4km/h 4mph /  6.4km/h 81% 0in /  0.0mm 329 W/m2
12:28 52.2 °F /  11.2 °C 46.6 °F /  8.1 °C 30.1in /  1020.7hPa WSW 6mph /  9.7km/h 8mph /  12.9km/h 81% 0in /  0.0mm 188 W/m2
12:33 52.2 °F /  11.2 °C 46.6 °F /  8.1 °C 30.1in /  1020.7hPa West 8.1mph /  13km/h 8mph /  12.9km/h 81% 0in /  0.0mm 113 W/m2
12:38 51.8 °F /  11 °C 45.9 °F /  7.7 °C 30.1in /  1020.7hPa West 2mph /  3.2km/h 11mph /  17.7km/h 80% 0in /  0.0mm 111 W/m2
12:43 51.4 °F /  10.8 °C 46.2 °F /  7.9 °C 30.1in /  1020.7hPa West 6mph /  9.7km/h 7mph /  11.3km/h 82% 0in /  0.0mm 109 W/m2
12:48 51.4 °F /  10.8 °C 45.9 °F /  7.7 °C 30.1in /  1020.7hPa West 4mph /  6.4km/h 7mph /  11.3km/h 81% 0in /  0.0mm 109 W/m2
12:53 51.4 °F /  10.8 °C 46.2 °F /  7.9 °C 30.1in /  1020.7hPa WSW 0.9mph /  1.4km/h 4mph /  6.4km/h 82% 0in /  0.0mm 120 W/m2
12:58 51.4 °F /  10.8 °C 46.4 °F /  8 °C 30.1in /  1020.7hPa WNW 2.9mph /  4.7km/h 7mph /  11.3km/h 83% 0in /  0.0mm 132 W/m2
13:03 51.4 °F /  10.8 °C 46.4 °F /  8 °C 30.1in /  1020.7hPa WNW 4mph /  6.4km/h 5mph /  8km/h 83% 0in /  0.0mm 174 W/m2
13:08 51.4 °F /  10.8 °C 46.8 °F /  8.2 °C 30.1in /  1020.7hPa West 6mph /  9.7km/h 7mph /  11.3km/h 84% 0in /  0.0mm 218 W/m2
13:13 51.6 °F /  10.9 °C 46.6 °F /  8.1 °C 30.1in /  1020.7hPa NW 4mph /  6.4km/h 9mph /  14.5km/h 83% 0in /  0.0mm 116 W/m2
13:18 51.4 °F /  10.8 °C 46.4 °F /  8 °C 30.1in /  1020.7hPa West 4mph /  6.4km/h 11mph /  17.7km/h 83% 0in /  0.0mm 74 W/m2
13:23 51.3 °F /  10.7 °C 46.2 °F /  7.9 °C 30.1in /  1020.7hPa WNW 4.9mph /  7.9km/h 9mph /  14.5km/h 83% 0in /  0.0mm 70 W/m2
13:28 50.9 °F /  10.5 °C 46.2 °F /  7.9 °C 30.1in /  1020.3hPa SW 0.9mph /  1.4km/h 6mph /  9.7km/h 84% 0in /  0.0mm 56 W/m2
13:34 50.5 °F /  10.3 °C 46.2 °F /  7.9 °C 30.1in /  1020.3hPa SW 4mph /  6.4km/h 9mph /  14.5km/h 85% 0in /  0.0mm 70 W/m2
13:39 50.2 °F /  10.1 °C 46.2 °F /  7.9 °C 30.1in /  1020.3hPa WNW 2.9mph /  4.7km/h 6mph /  9.7km/h 86% 0in /  0.0mm 77 W/m2
13:44 49.8 °F /  9.9 °C 46 °F /  7.8 °C 30.1in /  1020.3hPa WSW 6.9mph /  11.1km/h 9mph /  14.5km/h 87% 0in /  0.0mm 69 W/m2
13:49 49.8 °F /  9.9 °C 46 °F /  7.8 °C 30.1in /  1020.3hPa WNW 4mph /  6.4km/h 8mph /  12.9km/h 87% 0in /  0.0mm 81 W/m2
13:54 49.8 °F /  9.9 °C 46 °F /  7.8 °C 30.1in /  1020.3hPa WNW 8.1mph /  13km/h 9mph /  14.5km/h 87% 0in /  0.0mm 83 W/m2
13:59 49.8 °F /  9.9 °C 46.4 °F /  8 °C 30.1in /  1020.3hPa NW 2.9mph /  4.7km/h 8mph /  12.9km/h 88% 0in /  0.0mm 100 W/m2
14:04 50 °F /  10 °C 46.6 °F /  8.1 °C 30.1in /  1020.0hPa West 8.1mph /  13km/h 9mph /  14.5km/h 88% 0in /  0.0mm 109 W/m2
14:09 50.2 °F /  10.1 °C 46.4 °F /  8 °C 30.1in /  1020.0hPa West 2.9mph /  4.7km/h 7mph /  11.3km/h 87% 0in /  0.0mm 113 W/m2
14:14 50.4 °F /  10.2 °C 46.6 °F /  8.1 °C 30.1in /  1020.0hPa NW 4.9mph /  7.9km/h 9mph /  14.5km/h 87% 0in /  0.0mm 135 W/m2
14:19 50.4 °F /  10.2 °C 46.6 °F /  8.1 °C 30.1in /  1020.0hPa NW 2.9mph /  4.7km/h 4mph /  6.4km/h 87% 0in /  0.0mm 188 W/m2
14:24 50.5 °F /  10.3 °C 47.1 °F /  8.4 °C 30.1in /  1020.0hPa West 6mph /  9.7km/h 9mph /  14.5km/h 88% 0in /  0.0mm 200 W/m2
14:29 50.5 °F /  10.3 °C 47.5 °F /  8.6 °C 30.1in /  1020.0hPa WNW 2.9mph /  4.7km/h 4mph /  6.4km/h 89% 0in /  0.0mm 204 W/m2
14:34 50.7 °F /  10.4 °C 47.3 °F /  8.5 °C 30.1in /  1019.6hPa WNW 0.9mph /  1.4km/h 9mph /  14.5km/h 88% 0in /  0.0mm 206 W/m2
14:39 50.7 °F /  10.4 °C 47.3 °F /  8.5 °C 30.1in /  1019.6hPa West 6.9mph /  11.1km/h 7mph /  11.3km/h 88% 0in /  0.0mm 199 W/m2
14:44 50.9 °F /  10.5 °C 47.1 °F /  8.4 °C 30.1in /  1019.6hPa West 2.9mph /  4.7km/h 3mph /  4.8km/h 87% 0in /  0.0mm 225 W/m2
14:49 51.3 °F /  10.7 °C 47.5 °F /  8.6 °C 30.1in /  1019.6hPa WSW 2.9mph /  4.7km/h 3mph /  4.8km/h 87% 0in /  0.0mm 234 W/m2
14:54 51.4 °F /  10.8 °C 47.5 °F /  8.6 °C 30.1in /  1019.6hPa WSW 4.9mph /  7.9km/h 6mph /  9.7km/h 86% 0in /  0.0mm 181 W/m2
14:59 51.6 °F /  10.9 °C 47.5 °F /  8.6 °C 30.1in /  1019.6hPa WNW 4mph /  6.4km/h 5mph /  8km/h 86% 0in /  0.0mm 197 W/m2
15:04 52 °F /  11.1 °C 47.8 °F /  8.8 °C 30.1in /  1019.6hPa West 0.9mph /  1.4km/h 3mph /  4.8km/h 86% 0in /  0.0mm 195 W/m2
15:09 52.2 °F /  11.2 °C 47.8 °F /  8.8 °C 30.1in /  1019.6hPa West 2.9mph /  4.7km/h 5mph /  8km/h 85% 0in /  0.0mm 202 W/m2
15:14 52.2 °F /  11.2 °C 47.1 °F /  8.4 °C 30.1in /  1019.6hPa WNW 2mph /  3.2km/h 7mph /  11.3km/h 83% 0in /  0.0mm 218 W/m2
15:19 52.2 °F /  11.2 °C 46.8 °F /  8.2 °C 30.1in /  1019.3hPa WNW 2.9mph /  4.7km/h 7mph /  11.3km/h 82% 0in /  0.0mm 327 W/m2
15:24 52.3 °F /  11.3 °C 46.9 °F /  8.3 °C 30.1in /  1019.3hPa WNW 2mph /  3.2km/h 6mph /  9.7km/h 82% 0in /  0.0mm 290 W/m2
15:29 52.5 °F /  11.4 °C 47.1 °F /  8.4 °C 30.1in /  1019.3hPa WSW 2.9mph /  4.7km/h 4mph /  6.4km/h 82% 0in /  0.0mm 199 W/m2
15:34 52.5 °F /  11.4 °C 46.6 °F /  8.1 °C 30.1in /  1019.3hPa WSW 0.9mph /  1.4km/h 9mph /  14.5km/h 80% 0in /  0.0mm 130 W/m2
15:39 52.5 °F /  11.4 °C 46.6 °F /  8.1 °C 30.1in /  1019.3hPa NW 2.9mph /  4.7km/h 7mph /  11.3km/h 80% 0in /  0.0mm 134 W/m2
15:44 52.3 °F /  11.3 °C 46.8 °F /  8.2 °C 30.1in /  1019.3hPa West 0.9mph /  1.4km/h 9mph /  14.5km/h 81% 0in /  0.0mm 148 W/m2
15:49 52.3 °F /  11.3 °C 47.3 °F /  8.5 °C 30.1in /  1019.3hPa WSW 2mph /  3.2km/h 3mph /  4.8km/h 83% 0in /  0.0mm 141 W/m2
15:54 52.3 °F /  11.3 °C 47.3 °F /  8.5 °C 30.1in /  1019.3hPa WNW 0.9mph /  1.4km/h 5mph /  8km/h 83% 0.01in /  0.2mm 134 W/m2
15:59 52.2 °F /  11.2 °C 47.1 °F /  8.4 °C 30.1in /  1019.3hPa WNW 2mph /  3.2km/h 7mph /  11.3km/h 83% 0.01in /  0.2mm 165 W/m2
16:04 52 °F /  11.1 °C 47.3 °F /  8.5 °C 30.1in /  1019.0hPa West 2mph /  3.2km/h 4mph /  6.4km/h 84% 0.01in /  0.2mm 155 W/m2
16:09 51.8 °F /  11 °C 47.5 °F /  8.6 °C 30.1in /  1019.0hPa NW 2.9mph /  4.7km/h 4mph /  6.4km/h 85% 0.01in /  0.2mm 135 W/m2
16:14 51.8 °F /  11 °C 47.7 °F /  8.7 °C 30.1in /  1019.0hPa Calm   4mph /  6.4km/h 86% 0.01in /  0.2mm 148 W/m2
16:19 51.8 °F /  11 °C 47.5 °F /  8.6 °C 30.1in /  1019.0hPa West 2mph /  3.2km/h 4mph /  6.4km/h 85% 0.01in /  0.2mm 114 W/m2
16:24 52 °F /  11.1 °C 47.7 °F /  8.7 °C 30.1in /  1019.0hPa NW 2mph /  3.2km/h 2mph /  3.2km/h 85% 0.01in /  0.2mm 83 W/m2
16:29 52 °F /  11.1 °C 47.7 °F /  8.7 °C 30.1in /  1019.0hPa WNW 0.9mph /  1.4km/h 3mph /  4.8km/h 85% 0.01in /  0.2mm 84 W/m2
16:34 52 °F /  11.1 °C 47.7 °F /  8.7 °C 30.1in /  1019.0hPa WSW 2mph /  3.2km/h 3mph /  4.8km/h 85% 0.01in /  0.2mm 86 W/m2
16:39 51.8 °F /  11 °C 47.5 °F /  8.6 °C 30.1in /  1019.0hPa West 2mph /  3.2km/h 2mph /  3.2km/h 85% 0.01in /  0.2mm 86 W/m2
16:44 51.8 °F /  11 °C 47.5 °F /  8.6 °C 30.1in /  1019.0hPa West 2.9mph /  4.7km/h 5mph /  8km/h 85% 0.01in /  0.2mm 83 W/m2
16:49 51.6 °F /  10.9 °C 47.3 °F /  8.5 °C 30.1in /  1019.0hPa West 0.9mph /  1.4km/h 6mph /  9.7km/h 85% 0.01in /  0.2mm 70 W/m2
16:54 51.4 °F /  10.8 °C 47.1 °F /  8.4 °C 30.1in /  1019.0hPa SW 4mph /  6.4km/h 6mph /  9.7km/h 85% 0in /  0.0mm 63 W/m2
16:59 51.4 °F /  10.8 °C 47.1 °F /  8.4 °C 30.1in /  1018.6hPa NW 4mph /  6.4km/h 5mph /  8km/h 85% 0in /  0.0mm 72 W/m2
17:04 51.4 °F /  10.8 °C 47.5 °F /  8.6 °C 30.1in /  1018.6hPa NW 0.9mph /  1.4km/h 2mph /  3.2km/h 86% 0in /  0.0mm 79 W/m2
17:09 51.4 °F /  10.8 °C 47.7 °F /  8.7 °C 30.1in /  1018.6hPa WNW 4.9mph /  7.9km/h 5mph /  8km/h 87% 0in /  0.0mm 74 W/m2
17:14 51.3 °F /  10.7 °C 47.5 °F /  8.6 °C 30.1in /  1018.6hPa WSW 2.9mph /  4.7km/h 4mph /  6.4km/h 87% 0in /  0.0mm 72 W/m2
17:19 51.3 °F /  10.7 °C 47.3 °F /  8.5 °C 30.1in /  1018.6hPa West 5mph /  8km/h 5mph /  8km/h 86% 0in /  0.0mm 67 W/m2
17:24 51.1 °F /  10.6 °C 47.3 °F /  8.5 °C 30.1in /  1018.6hPa WNW 2mph /  3.2km/h 5mph /  8km/h 87% 0in /  0.0mm 60 W/m2
17:29 50.9 °F /  10.5 °C 47.1 °F /  8.4 °C 30.1in /  1018.6hPa West 2.9mph /  4.7km/h 4mph /  6.4km/h 87% 0in /  0.0mm 62 W/m2
17:34 50.7 °F /  10.4 °C 47.3 °F /  8.5 °C 30.1in /  1018.6hPa WNW 2mph /  3.2km/h 4mph /  6.4km/h 88% 0in /  0.0mm 65 W/m2
17:39 50.5 °F /  10.3 °C 46.8 °F /  8.2 °C 30.1in /  1018.3hPa WNW 2mph /  3.2km/h 6mph /  9.7km/h 87% 0in /  0.0mm 67 W/m2
17:44 50.5 °F /  10.3 °C 46.8 °F /  8.2 °C 30.1in /  1018.3hPa WNW 2.9mph /  4.7km/h 4mph /  6.4km/h 87% 0in /  0.0mm 65 W/m2
17:49 50.5 °F /  10.3 °C 46.8 °F /  8.2 °C 30.1in /  1018.3hPa West 2mph /  3.2km/h 5mph /  8km/h 87% 0in /  0.0mm 62 W/m2
17:54 50.5 °F /  10.3 °C 46.8 °F /  8.2 °C 30.1in /  1018.3hPa WNW 2mph /  3.2km/h 4mph /  6.4km/h 87% 0in /  0.0mm 54 W/m2
17:59 50.5 °F /  10.3 °C 46.8 °F /  8.2 °C 30.1in /  1018.3hPa West 2.9mph /  4.7km/h 5mph /  8km/h 87% 0in /  0.0mm 51 W/m2
18:04 50.4 °F /  10.2 °C 46.6 °F /  8.1 °C 30.1in /  1018.3hPa West 2mph /  3.2km/h 7mph /  11.3km/h 87% 0in /  0.0mm 42 W/m2
18:09 50.4 °F /  10.2 °C 46.6 °F /  8.1 °C 30.1in /  1018.3hPa WNW 2.9mph /  4.7km/h 3mph /  4.8km/h 87% 0in /  0.0mm 33 W/m2
18:14 50.2 °F /  10.1 °C 46.4 °F /  8 °C 30.1in /  1018.3hPa WNW 2mph /  3.2km/h 7mph /  11.3km/h 87% 0in /  0.0mm 35 W/m2
18:19 50.2 °F /  10.1 °C 46.4 °F /  8 °C 30.1in /  1018.3hPa West 2.9mph /  4.7km/h 3mph /  4.8km/h 87% 0in /  0.0mm 30 W/m2
18:24 50 °F /  10 °C 46.2 °F /  7.9 °C 30.1in /  1018.3hPa West 2.9mph /  4.7km/h 3mph /  4.8km/h 87% 0in /  0.0mm 30 W/m2
18:29 49.8 °F /  9.9 °C 46 °F /  7.8 °C 30.1in /  1018.3hPa NW 0.9mph /  1.4km/h 3mph /  4.8km/h 87% 0in /  0.0mm 21 W/m2
18:34 49.8 °F /  9.9 °C 46.4 °F /  8 °C 30.1in /  1018.3hPa West 0.9mph /  1.4km/h 4mph /  6.4km/h 88% 0in /  0.0mm 14 W/m2
18:39 49.6 °F /  9.8 °C 46.2 °F /  7.9 °C 30.1in /  1018.3hPa Calm   2mph /  3.2km/h 88% 0in /  0.0mm 12 W/m2
18:44 49.6 °F /  9.8 °C 46.2 °F /  7.9 °C 30.1in /  1018.3hPa WNW 0.9mph /  1.4km/h 3mph /  4.8km/h 88% 0in /  0.0mm 9 W/m2
18:49 49.5 °F /  9.7 °C 46.4 °F /  8 °C 30.1in /  1018.3hPa Calm   2mph /  3.2km/h 89% 0in /  0.0mm 5 W/m2
18:54 49.3 °F /  9.6 °C 46.2 °F /  7.9 °C 30.1in /  1018.3hPa West 0.9mph /  1.4km/h 3mph /  4.8km/h 89% 0in /  0.0mm 0 W/m2
18:59 49.3 °F /  9.6 °C 46.2 °F /  7.9 °C 30.1in /  1018.3hPa West 0.9mph /  1.4km/h 4mph /  6.4km/h 89% 0in /  0.0mm 0 W/m2
19:04 49.3 °F /  9.6 °C 46.4 °F /  8 °C 30.1in /  1018.3hPa WNW 2.9mph /  4.7km/h 4mph /  6.4km/h 90% 0in /  0.0mm 0 W/m2
19:09 49.3 °F /  9.6 °C 46.4 °F /  8 °C 30.1in /  1018.3hPa West 2mph /  3.2km/h 4mph /  6.4km/h 90% 0in /  0.0mm 0 W/m2
19:14 49.3 °F /  9.6 °C 46.2 °F /  7.9 °C 30.1in /  1018.3hPa WNW 0.9mph /  1.4km/h 3mph /  4.8km/h 89% 0in /  0.0mm 0 W/m2
19:19 49.3 °F /  9.6 °C 46.4 °F /  8 °C 30.1in /  1018.3hPa NW 0.9mph /  1.4km/h 2mph /  3.2km/h 90% 0in /  0.0mm 0 W/m2
19:24 49.3 °F /  9.6 °C 46.4 °F /  8 °C 30.1in /  1018.3hPa West 2mph /  3.2km/h 3mph /  4.8km/h 90% 0in /  0.0mm 0 W/m2
19:29 49.3 °F /  9.6 °C 46.4 °F /  8 °C 30.1in /  1018.3hPa West 0.9mph /  1.4km/h 3mph /  4.8km/h 90% 0in /  0.0mm 0 W/m2
19:34 49.3 °F /  9.6 °C 46.4 °F /  8 °C 30.1in /  1018.3hPa WNW 2mph /  3.2km/h 3mph /  4.8km/h 90% 0in /  0.0mm 0 W/m2
19:39 49.3 °F /  9.6 °C 46.4 °F /  8 °C 30.1in /  1018.0hPa West 0.9mph /  1.4km/h 3mph /  4.8km/h 90% 0in /  0.0mm 0 W/m2
19:44 49.3 °F /  9.6 °C 46.2 °F /  7.9 °C 30.1in /  1018.0hPa West 2mph /  3.2km/h 3mph /  4.8km/h 89% 0in /  0.0mm 0 W/m2
19:49 49.3 °F /  9.6 °C 46.2 °F /  7.9 °C 30.1in /  1018.3hPa WNW 2.9mph /  4.7km/h 3mph /  4.8km/h 89% 0in /  0.0mm 0 W/m2
19:54 49.3 °F /  9.6 °C 46.2 °F /  7.9 °C 30.1in /  1018.3hPa West 2.9mph /  4.7km/h 4mph /  6.4km/h 89% 0in /  0.0mm 0 W/m2
19:59 49.3 °F /  9.6 °C 46.2 °F /  7.9 °C 30.1in /  1018.3hPa West 0.9mph /  1.4km/h 2mph /  3.2km/h 89% 0in /  0.0mm 0 W/m2
20:04 49.3 °F /  9.6 °C 46.2 °F /  7.9 °C 30.1in /  1018.0hPa Calm   3mph /  4.8km/h 89% 0in /  0.0mm 0 W/m2
20:09 49.3 °F /  9.6 °C 46.2 °F /  7.9 °C 30.1in /  1018.0hPa SW 0.9mph /  1.4km/h 3mph /  4.8km/h 89% 0in /  0.0mm 0 W/m2
20:14 49.3 °F /  9.6 °C 46.2 °F /  7.9 °C 30.1in /  1018.0hPa Calm   1mph /  1.6km/h 89% 0in /  0.0mm 0 W/m2
20:19 49.3 °F /  9.6 °C 46.2 °F /  7.9 °C 30.1in /  1018.0hPa Calm   3mph /  4.8km/h 89% 0in /  0.0mm 0 W/m2
20:24 49.3 °F /  9.6 °C 46.2 °F /  7.9 °C 30.1in /  1018.0hPa SW 2mph /  3.2km/h 2mph /  3.2km/h 89% 0in /  0.0mm 0 W/m2
20:29 49.3 °F /  9.6 °C 46.2 °F /  7.9 °C 30.1in /  1018.0hPa WNW 2mph /  3.2km/h 4mph /  6.4km/h 89% 0in /  0.0mm 0 W/m2
20:34 49.3 °F /  9.6 °C 46.2 °F /  7.9 °C 30.1in /  1018.0hPa West 2mph /  3.2km/h 2mph /  3.2km/h 89% 0in /  0.0mm 0 W/m2
20:39 49.5 °F /  9.7 °C 46.4 °F /  8 °C 30.1in /  1018.0hPa WNW 2.9mph /  4.7km/h 4mph /  6.4km/h 89% 0in /  0.0mm 0 W/m2
20:44 49.5 °F /  9.7 °C 46.4 °F /  8 °C 30.1in /  1018.0hPa Calm   2mph /  3.2km/h 89% 0in /  0.0mm 0 W/m2
20:49 49.5 °F /  9.7 °C 46.4 °F /  8 °C 30.1in /  1018.0hPa NW 0.9mph /  1.4km/h 4mph /  6.4km/h 89% 0in /  0.0mm 0 W/m2
20:54 49.3 °F /  9.6 °C 46.2 °F /  7.9 °C 30.1in /  1018.0hPa West 0.9mph /  1.4km/h 3mph /  4.8km/h 89% 0in /  0.0mm 0 W/m2
20:59 49.3 °F /  9.6 °C 46.2 °F /  7.9 °C 30.1in /  1017.6hPa Calm   1mph /  1.6km/h 89% 0in /  0.0mm 0 W/m2
21:04 49.1 °F /  9.5 °C 46 °F /  7.8 °C 30.1in /  1017.6hPa Calm   1mph /  1.6km/h 89% 0in /  0.0mm 0 W/m2
21:09 48.9 °F /  9.4 °C 46 °F /  7.8 °C 30.1in /  1017.6hPa West 2mph /  3.2km/h 3mph /  4.8km/h 90% 0in /  0.0mm 0 W/m2
21:14 48.9 °F /  9.4 °C 46 °F /  7.8 °C 30.1in /  1017.6hPa Calm   2mph /  3.2km/h 90% 0in /  0.0mm 0 W/m2
21:19 48.7 °F /  9.3 °C 45.9 °F /  7.7 °C 30.1in /  1017.6hPa West 2mph /  3.2km/h 2mph /  3.2km/h 90% 0in /  0.0mm 0 W/m2
21:24 48.7 °F /  9.3 °C 45.9 °F /  7.7 °C 30.1in /  1017.6hPa Calm   3mph /  4.8km/h 90% 0in /  0.0mm 0 W/m2
21:29 48.6 °F /  9.2 °C 45.7 °F /  7.6 °C 30.1in /  1017.6hPa SE 2mph /  3.2km/h 3mph /  4.8km/h 90% 0in /  0.0mm 0 W/m2
21:34 48.4 °F /  9.1 °C 45.9 °F /  7.7 °C 30.1in /  1017.6hPa West 2mph /  3.2km/h 4mph /  6.4km/h 91% 0in /  0.0mm 0 W/m2
21:40 48.2 °F /  9 °C 45.7 °F /  7.6 °C 30.1in /  1017.6hPa Calm   2mph /  3.2km/h 91% 0in /  0.0mm 0 W/m2
21:45 48 °F /  8.9 °C 45.5 °F /  7.5 °C 30.1in /  1017.6hPa Calm   4mph /  6.4km/h 91% 0in /  0.0mm 0 W/m2
21:50 47.8 °F /  8.8 °C 45.3 °F /  7.4 °C 30.1in /  1017.6hPa Calm     91% 0in /  0.0mm 0 W/m2
21:55 47.7 °F /  8.7 °C 45.1 °F /  7.3 °C 30.1in /  1017.6hPa Calm   3mph /  4.8km/h 91% 0in /  0.0mm 0 W/m2
22:00 47.7 °F /  8.7 °C 45.5 °F /  7.5 °C 30.1in /  1017.6hPa Calm     92% 0in /  0.0mm 0 W/m2
22:05 47.7 °F /  8.7 °C 45.5 °F /  7.5 °C 30.1in /  1017.6hPa Calm   1mph /  1.6km/h 92% 0in /  0.0mm 0 W/m2
22:10 47.7 °F /  8.7 °C 45.5 °F /  7.5 °C 30.1in /  1017.6hPa Calm   1mph /  1.6km/h 92% 0in /  0.0mm 0 W/m2
22:15 47.5 °F /  8.6 °C 45.3 °F /  7.4 °C 30in /  1017.3hPa Calm     92% 0in /  0.0mm 0 W/m2
22:20 47.5 °F /  8.6 °C 45.3 °F /  7.4 °C 30in /  1017.3hPa Calm   1mph /  1.6km/h 92% 0in /  0.0mm 0 W/m2
22:25 47.5 °F /  8.6 °C 45.3 °F /  7.4 °C 30in /  1017.3hPa Calm     92% 0in /  0.0mm 0 W/m2
22:30 47.3 °F /  8.5 °C 45.1 °F /  7.3 °C 30in /  1017.3hPa WNW 0.9mph /  1.4km/h 3mph /  4.8km/h 92% 0in /  0.0mm 0 W/m2
22:35 47.3 °F /  8.5 °C 45.3 °F /  7.4 °C 30in /  1017.3hPa West 0.9mph /  1.4km/h 2mph /  3.2km/h 93% 0in /  0.0mm 0 W/m2
22:40 47.3 °F /  8.5 °C 45.3 °F /  7.4 °C 30in /  1017.3hPa West 2mph /  3.2km/h 4mph /  6.4km/h 93% 0in /  0.0mm 0 W/m2
22:45 47.1 °F /  8.4 °C 45.1 °F /  7.3 °C 30in /  1017.3hPa WNW 0.9mph /  1.4km/h 2mph /  3.2km/h 93% 0in /  0.0mm 0 W/m2
22:50 47.1 °F /  8.4 °C 45.1 °F /  7.3 °C 30in /  1017.3hPa NNW 0.9mph /  1.4km/h 2mph /  3.2km/h 93% 0in /  0.0mm 0 W/m2
22:55 47.3 °F /  8.5 °C 45.3 °F /  7.4 °C 30in /  1017.3hPa NNW 0.9mph /  1.4km/h 2mph /  3.2km/h 93% 0in /  0.0mm 0 W/m2
23:00 47.3 °F /  8.5 °C 45.3 °F /  7.4 °C 30in /  1017.3hPa NW 0.9mph /  1.4km/h 2mph /  3.2km/h 93% 0in /  0.0mm 0 W/m2
23:05 47.5 °F /  8.6 °C 45.5 °F /  7.5 °C 30in /  1017.3hPa WNW 0.9mph /  1.4km/h 2mph /  3.2km/h 93% 0in /  0.0mm 0 W/m2
23:10 47.5 °F /  8.6 °C 45.5 °F /  7.5 °C 30in /  1017.3hPa WNW 2mph /  3.2km/h 3mph /  4.8km/h 93% 0in /  0.0mm 0 W/m2
23:15 47.5 °F /  8.6 °C 45.5 °F /  7.5 °C 30in /  1016.9hPa Calm     93% 0in /  0.0mm 0 W/m2
23:20 47.3 °F /  8.5 °C 45.1 °F /  7.3 °C 30in /  1016.9hPa Calm   1mph /  1.6km/h 92% 0in /  0.0mm 0 W/m2
23:25 47.1 °F /  8.4 °C 45 °F /  7.2 °C 30in /  1016.9hPa Calm   2mph /  3.2km/h 92% 0in /  0.0mm 0 W/m2
23:30 47.1 °F /  8.4 °C 45.1 °F /  7.3 °C 30in /  1016.9hPa Calm   1mph /  1.6km/h 93% 0in /  0.0mm 0 W/m2
23:35 47.1 °F /  8.4 °C 45 °F /  7.2 °C 30in /  1016.9hPa Calm   2mph /  3.2km/h 92% 0in /  0.0mm 0 W/m2
23:40 46.9 °F /  8.3 °C 44.8 °F /  7.1 °C 30in /  1016.9hPa Calm   3mph /  4.8km/h 92% 0in /  0.0mm 0 W/m2
23:45 46.9 °F /  8.3 °C 44.8 °F /  7.1 °C 30in /  1016.9hPa Calm   2mph /  3.2km/h 92% 0in /  0.0mm 0 W/m2
23:50 46.9 °F /  8.3 °C 45 °F /  7.2 °C 30in /  1016.9hPa Calm   1mph /  1.6km/h 93% 0in /  0.0mm 0 W/m2
23:55 46.8 °F /  8.2 °C 44.8 °F /  7.1 °C 30in /  1016.9hPa Calm     93% 0in /  0.0mm 0 W/m2
Juneau County Weather
Compliments of Weather Underground - 4 mb